createdAt,value
2022-09-21T00:01:32.435Z,4.60
2022-09-21T00:04:02.270Z,4.70
2022-09-21T00:06:33.469Z,4.70
2022-09-21T00:09:04.034Z,4.90
2022-09-21T00:11:33.722Z,4.60
2022-09-21T00:14:07.156Z,5.10
2022-09-21T00:19:03.976Z,4.80
2022-09-21T00:21:34.101Z,5.20
2022-09-21T00:24:02.685Z,4.90
2022-09-21T00:26:31.154Z,6.40
2022-09-21T00:29:01.687Z,5.10
2022-09-21T00:31:31.935Z,6.10
2022-09-21T00:34:00.339Z,6.00
2022-09-21T00:36:28.491Z,5.80
2022-09-21T00:38:59.045Z,6.10
2022-09-21T00:41:28.263Z,5.80
2022-09-21T00:44:17.695Z,6.00
2022-09-21T00:46:48.115Z,5.30
2022-09-21T00:49:17.688Z,5.70
2022-09-21T00:51:47.098Z,5.90
2022-09-21T00:54:19.923Z,7.30
2022-09-21T00:56:47.993Z,6.50
2022-09-21T00:59:21.567Z,6.20
2022-09-21T01:01:51.341Z,7.30
2022-09-21T01:04:19.543Z,6.20
2022-09-21T01:06:48.864Z,5.30
2022-09-21T01:09:18.141Z,8.70
2022-09-21T01:12:07.704Z,6.50
2022-09-21T01:14:45.844Z,6.90
2022-09-21T01:17:27.713Z,7.30
2022-09-21T01:20:18.100Z,8.00
2022-09-21T01:23:03.346Z,7.80
2022-09-21T01:26:03.120Z,7.20
2022-09-21T01:29:03.427Z,7.50
2022-09-21T01:31:39.834Z,8.30
2022-09-21T01:34:17.296Z,7.40
2022-09-21T01:36:49.042Z,8.30
2022-09-21T01:39:20.801Z,8.10
2022-09-21T01:41:52.138Z,8.10
2022-09-21T01:44:23.738Z,8.20
2022-09-21T01:46:51.875Z,7.40
2022-09-21T01:49:27.320Z,7.00
2022-09-21T01:52:20.656Z,7.40
2022-09-21T01:54:54.411Z,8.00
2022-09-21T01:57:39.249Z,7.50
2022-09-21T02:00:08.602Z,7.40
2022-09-21T02:02:54.748Z,6.40
2022-09-21T02:05:25.281Z,7.10
2022-09-21T02:07:53.974Z,6.80
2022-09-21T02:10:33.711Z,7.40
2022-09-21T02:13:06.284Z,6.80
2022-09-21T02:15:50.276Z,6.50
2022-09-21T02:18:33.978Z,5.80
2022-09-21T02:21:09.111Z,6.60
2022-09-21T02:23:49.987Z,5.90
2022-09-21T02:26:30.219Z,5.70
2022-09-21T02:29:18.964Z,6.10
2022-09-21T02:31:53.613Z,5.00
2022-09-21T02:34:47.604Z,5.60
2022-09-21T02:37:44.130Z,5.50
2022-09-21T02:40:30.659Z,5.80
2022-09-21T02:43:21.785Z,4.10
2022-09-21T02:45:59.292Z,4.40
2022-09-21T02:48:33.575Z,5.50
2022-09-21T02:51:10.790Z,5.10
2022-09-21T02:53:41.671Z,4.60
2022-09-21T02:56:11.592Z,4.90
2022-09-21T02:58:43.146Z,5.10
2022-09-21T03:01:13.468Z,4.80
2022-09-21T03:03:41.714Z,5.30
2022-09-21T03:06:09.607Z,4.80
2022-09-21T03:08:37.406Z,4.70
2022-09-21T03:11:05.550Z,4.30
2022-09-21T03:13:33.719Z,4.30
2022-09-21T03:16:04.145Z,5.70
2022-09-21T03:18:32.753Z,4.10
2022-09-21T03:21:02.314Z,4.30
2022-09-21T03:23:30.581Z,4.10
2022-09-21T03:25:58.967Z,4.30
2022-09-21T03:28:26.788Z,3.90
2022-09-21T03:30:54.572Z,3.90
2022-09-21T03:33:22.489Z,4.20
2022-09-21T03:35:50.692Z,4.80
2022-09-21T03:38:20.306Z,4.00
2022-09-21T03:40:49.799Z,3.70
2022-09-21T03:43:18.584Z,4.20
2022-09-21T03:45:48.301Z,3.60
2022-09-21T03:48:16.648Z,4.40
2022-09-21T03:50:44.463Z,3.60
2022-09-21T03:53:12.731Z,4.20
2022-09-21T03:55:40.956Z,5.60
2022-09-21T03:58:09.008Z,5.10
2022-09-21T04:00:38.039Z,5.60
2022-09-21T04:03:06.208Z,5.10
2022-09-21T04:05:34.376Z,5.00
2022-09-21T04:08:02.445Z,5.70
2022-09-21T04:10:33.447Z,5.50
2022-09-21T04:13:02.692Z,5.40
2022-09-21T04:15:31.333Z,6.10
2022-09-21T04:17:59.370Z,6.50
2022-09-21T04:20:27.265Z,5.30
2022-09-21T04:22:55.166Z,5.40
2022-09-21T04:25:22.909Z,5.00
2022-09-21T04:27:52.265Z,5.70
2022-09-21T04:30:20.512Z,5.60
2022-09-21T04:32:48.291Z,5.20
2022-09-21T04:35:16.061Z,5.20
2022-09-21T04:37:43.899Z,5.50
2022-09-21T04:40:11.678Z,5.40
2022-09-21T04:42:39.483Z,5.20
2022-09-21T04:45:07.835Z,5.60
2022-09-21T04:47:35.569Z,5.30
2022-09-21T04:50:05.166Z,5.40
2022-09-21T04:52:32.990Z,5.00
2022-09-21T04:55:01.021Z,4.50
2022-09-21T04:57:28.822Z,3.90
2022-09-21T04:59:56.585Z,3.80
2022-09-21T05:02:24.436Z,4.10
2022-09-21T05:04:52.163Z,4.00
2022-09-21T05:07:19.882Z,4.90
2022-09-21T05:10:03.676Z,3.80
2022-09-21T05:12:33.632Z,5.30
2022-09-21T05:15:01.929Z,5.00
2022-09-21T05:17:29.816Z,5.40
2022-09-21T05:19:57.550Z,5.80
2022-09-21T05:22:25.277Z,7.00
2022-09-21T05:24:53.179Z,6.00
2022-09-21T05:27:21.210Z,5.00
2022-09-21T05:29:49.784Z,5.80
2022-09-21T05:32:33.122Z,5.50
2022-09-21T05:35:12.348Z,4.90
2022-09-21T05:37:48.849Z,5.30
2022-09-21T05:40:17.044Z,4.60
2022-09-21T05:42:45.445Z,4.80
2022-09-21T05:45:18.190Z,5.10
2022-09-21T05:48:01.887Z,4.40
2022-09-21T05:50:46.508Z,4.30
2022-09-21T05:53:46.792Z,4.70
2022-09-21T05:56:33.378Z,4.70
2022-09-21T05:59:30.922Z,5.40
2022-09-21T06:02:12.080Z,5.10
2022-09-21T06:04:40.136Z,5.30
2022-09-21T06:07:07.950Z,4.40
2022-09-21T06:09:37.969Z,4.90
2022-09-21T06:12:11.343Z,5.50
2022-09-21T06:14:39.187Z,4.90
2022-09-21T06:17:07.025Z,4.10
2022-09-21T06:19:34.810Z,4.00
2022-09-21T06:22:02.636Z,6.40
2022-09-21T06:24:30.434Z,4.80
2022-09-21T06:26:58.242Z,3.40
2022-09-21T06:29:30.148Z,3.50
2022-09-21T06:32:01.576Z,4.10
2022-09-21T06:34:32.525Z,4.30
2022-09-21T06:37:02.508Z,4.50
2022-09-21T06:39:33.874Z,3.60
2022-09-21T06:42:05.247Z,3.50
2022-09-21T06:44:33.208Z,3.90
2022-09-21T06:47:00.943Z,4.20
2022-09-21T06:49:28.774Z,4.30
2022-09-21T06:51:56.519Z,3.20
2022-09-21T06:54:24.906Z,4.20
2022-09-21T06:56:54.903Z,3.90
2022-09-21T06:59:25.890Z,3.10
2022-09-21T07:01:57.233Z,3.60
2022-09-21T07:04:25.613Z,3.40
2022-09-21T07:06:54.070Z,3.60
2022-09-21T07:12:09.741Z,3.20
2022-09-21T07:14:37.460Z,2.60
2022-09-21T07:17:06.527Z,3.70
2022-09-21T07:19:34.268Z,2.70
2022-09-21T07:22:02.549Z,2.70
2022-09-21T07:24:30.408Z,3.20
2022-09-21T07:26:58.221Z,3.60
2022-09-21T07:29:26.098Z,2.70
2022-09-21T07:31:54.154Z,2.80
2022-09-21T07:34:22.000Z,2.70
2022-09-21T07:36:49.757Z,2.30
2022-09-21T07:39:17.459Z,3.40
2022-09-21T07:41:45.210Z,3.70
2022-09-21T07:44:13.001Z,2.90
2022-09-21T07:46:48.233Z,2.50
2022-09-21T07:49:16.195Z,2.40
2022-09-21T07:51:43.992Z,4.80
2022-09-21T07:54:12.836Z,2.20
2022-09-21T07:56:40.720Z,2.40
2022-09-21T07:59:08.794Z,2.30
2022-09-21T08:01:41.786Z,2.30
2022-09-21T08:04:11.355Z,1.90
2022-09-21T08:06:40.374Z,2.50
2022-09-21T08:09:08.695Z,3.30
2022-09-21T08:11:37.710Z,2.10
2022-09-21T08:14:06.306Z,2.20
2022-09-21T08:16:34.832Z,2.00
2022-09-21T08:19:05.295Z,1.60
2022-09-21T08:21:34.544Z,1.90
2022-09-21T08:24:02.450Z,1.90
2022-09-21T08:26:30.160Z,1.70
2022-09-21T08:28:58.959Z,1.70
2022-09-21T08:31:27.813Z,1.80
2022-09-21T08:33:57.621Z,2.10
2022-09-21T08:36:25.653Z,1.90
2022-09-21T08:38:55.243Z,1.10
2022-09-21T08:42:02.864Z,1.30
2022-09-21T08:44:42.267Z,2.00
2022-09-21T08:47:19.310Z,1.40
2022-09-21T08:49:56.800Z,1.30
2022-09-21T08:52:26.412Z,1.50
2022-09-21T08:55:06.258Z,2.00
2022-09-21T08:57:34.632Z,1.40
2022-09-21T09:00:03.252Z,2.20
2022-09-21T09:02:50.250Z,2.30
2022-09-21T09:05:36.822Z,1.70
2022-09-21T09:08:35.787Z,1.40
2022-09-21T09:11:47.620Z,1.50
2022-09-21T09:14:34.118Z,1.60
2022-09-21T09:17:17.768Z,1.40
2022-09-21T09:20:01.512Z,1.50
2022-09-21T09:25:17.741Z,1.10
2022-09-21T09:27:48.876Z,2.00
2022-09-21T09:30:20.614Z,1.20
2022-09-21T09:33:11.393Z,1.00
2022-09-21T09:35:49.330Z,0.90
2022-09-21T09:38:49.055Z,1.00
2022-09-21T09:41:50.014Z,0.80
2022-09-21T09:44:38.875Z,0.90
2022-09-21T09:47:31.486Z,1.10
2022-09-21T09:50:08.399Z,1.40
2022-09-21T09:52:37.152Z,2.90
2022-09-21T09:55:24.368Z,1.00
2022-09-21T09:57:54.800Z,1.20
2022-09-21T10:00:22.989Z,0.90
2022-09-21T10:02:52.957Z,1.50
2022-09-21T10:05:38.581Z,1.50
2022-09-21T10:08:06.672Z,1.10
2022-09-21T10:10:37.242Z,1.00
2022-09-21T10:13:29.805Z,1.50
2022-09-21T10:16:00.068Z,1.30
2022-09-21T10:18:44.932Z,1.00
2022-09-21T10:21:35.725Z,0.80
2022-09-21T10:24:12.704Z,1.00
2022-09-21T10:27:22.300Z,0.80
2022-09-21T10:29:50.073Z,1.20
2022-09-21T10:32:24.695Z,1.80
2022-09-21T10:35:08.907Z,1.40
2022-09-21T10:37:46.369Z,1.40
2022-09-21T10:40:20.314Z,1.00
2022-09-21T10:42:50.711Z,0.90
2022-09-21T10:45:24.909Z,0.90
2022-09-21T10:48:17.682Z,1.00
2022-09-21T10:50:49.408Z,1.00
2022-09-21T10:53:26.040Z,1.20
2022-09-21T10:56:17.538Z,1.00
2022-09-21T10:59:17.522Z,0.80
2022-09-21T11:01:47.365Z,0.80
2022-09-21T11:04:24.897Z,1.00
2022-09-21T11:06:58.840Z,1.20
2022-09-21T11:09:50.578Z,0.80
2022-09-21T11:12:34.007Z,0.80
2022-09-21T11:15:10.536Z,1.60
2022-09-21T11:17:55.358Z,1.40
2022-09-21T11:20:47.208Z,1.40
2022-09-21T11:23:30.887Z,1.00
2022-09-21T11:26:48.773Z,0.90
2022-09-21T11:33:48.769Z,0.90
2022-09-21T11:36:25.679Z,0.70
2022-09-21T11:39:03.367Z,1.10
2022-09-21T11:41:46.978Z,0.90
2022-09-21T11:44:43.483Z,0.90
2022-09-21T11:47:30.446Z,0.90
2022-09-21T11:53:25.475Z,0.80
2022-09-21T11:56:03.145Z,0.90
2022-09-21T11:58:34.330Z,0.50
2022-09-21T12:01:18.658Z,1.00
2022-09-21T12:03:56.088Z,0.90
2022-09-21T12:06:56.193Z,1.10
2022-09-21T12:09:55.902Z,1.00
2022-09-21T12:12:32.785Z,1.60
2022-09-21T12:15:11.390Z,1.00
2022-09-21T12:17:49.570Z,1.00
2022-09-21T12:20:19.802Z,0.90
2022-09-21T12:22:51.076Z,0.90
2022-09-21T12:25:25.031Z,0.60
2022-09-21T12:28:14.378Z,0.90
2022-09-21T12:30:46.429Z,1.80
2022-09-21T12:33:40.285Z,0.70
2022-09-21T12:39:11.933Z,1.20
2022-09-21T12:42:05.644Z,0.70
2022-09-21T12:44:53.166Z,1.70
2022-09-21T12:47:43.030Z,1.30
2022-09-21T12:50:44.482Z,1.00
2022-09-21T12:53:27.521Z,1.30
2022-09-21T12:56:18.240Z,1.50
2022-09-21T12:59:24.795Z,1.20
2022-09-21T13:02:20.054Z,1.20
2022-09-21T13:05:10.396Z,1.50
2022-09-21T13:08:01.070Z,3.30
2022-09-21T13:10:28.749Z,2.30
2022-09-21T13:13:02.134Z,1.50
2022-09-21T13:18:05.706Z,1.40
2022-09-21T13:20:38.387Z,1.00
2022-09-21T13:23:14.720Z,2.20
2022-09-21T13:25:48.799Z,2.10
2022-09-21T13:28:19.801Z,1.50
2022-09-21T13:31:23.658Z,1.40
2022-09-21T13:34:15.637Z,1.30
2022-09-21T13:36:43.791Z,1.50
2022-09-21T13:39:18.388Z,1.20
2022-09-21T13:42:03.516Z,1.50
2022-09-21T13:44:42.053Z,1.10
2022-09-21T13:47:12.144Z,1.10
2022-09-21T13:49:54.851Z,1.30
2022-09-21T13:52:37.048Z,1.80
2022-09-21T13:55:40.200Z,1.20
2022-09-21T13:58:37.490Z,1.20
2022-09-21T14:01:35.422Z,1.10
2022-09-21T14:04:18.726Z,1.20
2022-09-21T14:06:50.223Z,1.50
2022-09-21T14:09:28.789Z,1.40
2022-09-21T14:12:01.741Z,1.70
2022-09-21T14:14:37.227Z,1.40
2022-09-21T14:17:25.894Z,1.60
2022-09-21T14:19:56.502Z,1.80
2022-09-21T14:22:33.183Z,0.90
2022-09-21T14:25:25.378Z,1.30
2022-09-21T14:27:54.478Z,1.80
2022-09-21T14:30:33.801Z,1.40
2022-09-21T14:33:02.346Z,1.20
2022-09-21T14:35:47.604Z,1.10
2022-09-21T14:38:21.497Z,1.50
2022-09-21T14:40:51.814Z,1.10
2022-09-21T14:43:30.557Z,1.60
2022-09-21T14:46:18.275Z,1.40
2022-09-21T14:49:08.313Z,1.40
2022-09-21T14:52:12.337Z,1.30
2022-09-21T14:54:44.376Z,1.40
2022-09-21T14:57:37.477Z,1.20
2022-09-21T15:00:26.676Z,1.10
2022-09-21T15:03:30.951Z,1.50
2022-09-21T15:06:00.412Z,1.80
2022-09-21T15:09:07.637Z,1.80
2022-09-21T15:11:47.106Z,1.40
2022-09-21T15:14:21.794Z,1.20
2022-09-21T15:16:51.756Z,1.20
2022-09-21T15:19:30.003Z,1.50
2022-09-21T15:22:20.650Z,1.20
2022-09-21T15:24:53.865Z,1.30
2022-09-21T15:27:25.610Z,1.60
2022-09-21T15:29:56.559Z,1.50
2022-09-21T15:32:38.012Z,1.70
2022-09-21T15:35:21.602Z,1.20
2022-09-21T15:37:51.457Z,1.30
2022-09-21T15:40:23.249Z,1.70
2022-09-21T15:43:16.955Z,1.40
2022-09-21T15:45:54.822Z,1.20
2022-09-21T15:48:44.566Z,1.70
2022-09-21T15:51:31.820Z,1.70
2022-09-21T15:54:21.376Z,2.00
2022-09-21T15:56:49.623Z,1.80
2022-09-21T15:59:20.688Z,2.20
2022-09-21T16:01:53.261Z,1.30
2022-09-21T16:04:24.825Z,2.70
2022-09-21T16:07:25.567Z,1.10
2022-09-21T16:09:53.426Z,1.10
2022-09-21T16:12:46.458Z,1.40
2022-09-21T16:15:32.114Z,2.10
2022-09-21T16:18:03.011Z,2.20
2022-09-21T16:20:38.544Z,1.80
2022-09-21T16:23:14.502Z,1.70
2022-09-21T16:25:43.374Z,2.40
2022-09-21T16:28:15.463Z,2.00
2022-09-21T16:30:51.026Z,3.70
2022-09-21T16:33:48.881Z,1.30
2022-09-21T16:36:38.104Z,2.60
2022-09-21T16:39:15.014Z,2.30
2022-09-21T16:42:00.865Z,1.20
2022-09-21T16:44:30.827Z,2.40
2022-09-21T16:47:01.670Z,3.60
2022-09-21T16:49:35.592Z,1.80
2022-09-21T16:52:05.300Z,2.10
2022-09-21T16:54:34.988Z,1.50
2022-09-21T16:57:05.542Z,1.50
2022-09-21T16:59:34.718Z,2.20
2022-09-21T17:02:06.108Z,3.20
2022-09-21T17:04:35.739Z,2.60
2022-09-21T17:07:05.248Z,2.10
2022-09-21T17:09:35.680Z,2.20
2022-09-21T17:12:06.957Z,2.10
2022-09-21T17:14:36.655Z,2.40
2022-09-21T17:17:22.209Z,3.40
2022-09-21T17:19:53.099Z,2.60
2022-09-21T17:22:25.220Z,3.20
2022-09-21T17:24:55.877Z,2.10
2022-09-21T17:27:26.724Z,2.10
2022-09-21T17:29:56.422Z,2.00
2022-09-21T17:32:24.900Z,1.90
2022-09-21T17:35:23.666Z,1.90
2022-09-21T17:37:51.517Z,2.00
2022-09-21T17:40:19.983Z,2.00
2022-09-21T17:42:48.553Z,2.50
2022-09-21T17:45:38.835Z,3.10
2022-09-21T17:48:16.513Z,2.60
2022-09-21T17:50:44.459Z,2.20
2022-09-21T17:53:29.673Z,2.40
2022-09-21T17:55:59.791Z,2.90
2022-09-21T17:58:49.542Z,2.20
2022-09-21T18:01:36.809Z,2.60
2022-09-21T18:04:06.106Z,3.60
2022-09-21T18:06:34.425Z,2.90
2022-09-21T18:09:03.441Z,3.50
2022-09-21T18:11:31.219Z,3.10
2022-09-21T18:14:20.956Z,3.70
2022-09-21T18:17:11.004Z,3.80
2022-09-21T18:19:45.411Z,3.40
2022-09-21T18:22:39.693Z,3.00
2022-09-21T18:25:18.135Z,3.10
2022-09-21T18:27:47.709Z,2.90
2022-09-21T18:30:17.821Z,3.50
2022-09-21T18:33:07.560Z,3.40
2022-09-21T18:35:55.864Z,3.40
2022-09-21T18:38:37.085Z,3.20
2022-09-21T18:41:23.153Z,3.70
2022-09-21T18:44:18.363Z,3.20
2022-09-21T18:46:50.419Z,3.20
2022-09-21T18:49:48.432Z,2.90
2022-09-21T18:52:22.314Z,2.30
2022-09-21T18:54:51.079Z,2.60
2022-09-21T18:57:19.218Z,2.80
2022-09-21T18:59:47.403Z,4.60
2022-09-21T19:02:20.283Z,4.40
2022-09-21T19:04:49.767Z,3.20
2022-09-21T19:07:40.062Z,2.80
2022-09-21T19:10:40.348Z,2.70
2022-09-21T19:13:40.221Z,2.90
2022-09-21T19:16:31.631Z,3.40
2022-09-21T19:19:32.981Z,3.00
2022-09-21T19:22:24.656Z,3.20
2022-09-21T19:25:19.267Z,2.80
2022-09-21T19:27:56.500Z,2.60
2022-09-21T19:30:24.894Z,2.50
2022-09-21T19:33:01.154Z,3.10
2022-09-21T19:35:31.894Z,2.70
2022-09-21T19:38:02.114Z,3.10
2022-09-21T19:40:32.946Z,3.00
2022-09-21T19:43:20.588Z,3.20
2022-09-21T19:46:11.474Z,2.60
2022-09-21T19:48:44.765Z,2.60
2022-09-21T19:51:20.170Z,2.40
2022-09-21T19:54:12.148Z,2.40
2022-09-21T19:57:02.852Z,2.80
2022-09-21T19:59:47.122Z,3.00
2022-09-21T20:02:20.242Z,2.70
2022-09-21T20:05:20.115Z,2.00
2022-09-21T20:08:04.379Z,2.50
2022-09-21T20:10:51.567Z,2.80
2022-09-21T20:13:51.782Z,3.20
2022-09-21T20:16:31.332Z,2.30
2022-09-21T20:19:18.351Z,2.80
2022-09-21T20:21:48.400Z,3.00
2022-09-21T20:24:32.104Z,3.30
2022-09-21T20:27:03.261Z,4.00
2022-09-21T20:29:31.007Z,4.30
2022-09-21T20:32:00.951Z,2.80
2022-09-21T20:34:28.717Z,3.30
2022-09-21T20:36:56.604Z,3.50
2022-09-21T20:39:24.364Z,3.50
2022-09-21T20:41:52.399Z,3.60
2022-09-21T20:44:20.219Z,3.30
2022-09-21T20:46:47.982Z,4.10
2022-09-21T20:49:16.110Z,3.50
2022-09-21T20:51:43.945Z,3.70
2022-09-21T20:54:12.145Z,3.80
2022-09-21T20:56:41.247Z,4.30
2022-09-21T20:59:09.313Z,3.10
2022-09-21T21:01:37.114Z,4.10
2022-09-21T21:04:05.117Z,3.70
2022-09-21T21:06:34.038Z,3.90
2022-09-21T21:09:01.793Z,4.10
2022-09-21T21:11:29.751Z,3.80
2022-09-21T21:13:58.214Z,4.20
2022-09-21T21:16:26.484Z,4.20
2022-09-21T21:18:55.210Z,4.20
2022-09-21T21:21:24.610Z,4.90
2022-09-21T21:24:08.964Z,4.90
2022-09-21T21:27:01.303Z,4.50
2022-09-21T21:29:25.132Z,5.50
2022-09-21T21:31:52.997Z,4.90
2022-09-21T21:34:41.868Z,4.70
2022-09-21T21:37:11.863Z,3.50
2022-09-21T21:39:40.095Z,4.20
2022-09-21T21:42:08.813Z,4.20
2022-09-21T21:44:37.802Z,3.40
2022-09-21T21:47:27.398Z,3.90
2022-09-21T21:49:53.590Z,4.30
2022-09-21T21:52:21.429Z,4.00
2022-09-21T21:54:50.011Z,3.50
2022-09-21T21:57:17.757Z,3.80
2022-09-21T21:59:45.623Z,3.70
2022-09-21T22:02:13.452Z,3.60
2022-09-21T22:04:42.099Z,3.40
2022-09-21T22:07:09.926Z,4.30
2022-09-21T22:09:38.037Z,4.00
2022-09-21T22:12:05.945Z,3.50
2022-09-21T22:14:33.798Z,3.40
2022-09-21T22:17:01.581Z,2.90
2022-09-21T22:19:29.370Z,3.60
2022-09-21T22:21:57.685Z,3.40
2022-09-21T22:24:25.460Z,3.10
2022-09-21T22:26:53.296Z,2.90
2022-09-21T22:29:21.100Z,2.90
2022-09-21T22:31:49.994Z,3.20
2022-09-21T22:34:17.870Z,3.80
2022-09-21T22:36:45.686Z,3.00
2022-09-21T22:39:13.596Z,3.40
2022-09-21T22:41:42.759Z,3.20
2022-09-21T22:44:11.359Z,3.10
2022-09-21T22:46:39.589Z,3.20
2022-09-21T22:49:07.860Z,3.20
2022-09-21T22:51:36.182Z,3.00
2022-09-21T22:54:04.043Z,3.00
2022-09-21T22:56:33.277Z,2.50
2022-09-21T22:59:03.547Z,3.00
2022-09-21T23:01:37.464Z,2.80
2022-09-21T23:04:08.301Z,3.20
2022-09-21T23:06:38.868Z,2.70
2022-09-21T23:09:12.750Z,2.30
2022-09-21T23:11:43.291Z,3.50
2022-09-21T23:14:11.859Z,3.30
2022-09-21T23:16:40.266Z,2.70
2022-09-21T23:19:15.903Z,2.80
2022-09-21T23:21:46.721Z,2.60
2022-09-21T23:24:14.528Z,2.70
2022-09-21T23:26:42.526Z,3.20
2022-09-21T23:29:12.579Z,2.60
2022-09-21T23:31:44.669Z,2.70
2022-09-21T23:34:14.373Z,2.90
2022-09-21T23:36:43.627Z,3.00
2022-09-21T23:39:13.689Z,2.70
2022-09-21T23:41:41.540Z,2.80
2022-09-21T23:44:09.673Z,3.00
2022-09-21T23:46:39.116Z,3.00
2022-09-21T23:49:07.838Z,3.00
2022-09-21T23:51:36.374Z,3.40
2022-09-21T23:54:04.850Z,6.80
2022-09-21T23:56:33.515Z,6.40
2022-09-21T23:59:02.888Z,5.30
